createdAt,value
2019-01-29T00:02:27.514Z,35.07
2019-01-29T00:05:22.131Z,36.47
2019-01-29T00:08:16.433Z,35.93
2019-01-29T00:11:11.362Z,33.47
2019-01-29T00:14:07.154Z,37.50
2019-01-29T00:17:01.796Z,37.13
2019-01-29T00:19:56.202Z,36.57
2019-01-29T00:22:50.653Z,37.43
2019-01-29T00:25:44.984Z,36.97
2019-01-29T00:28:39.216Z,37.70
2019-01-29T00:31:35.210Z,38.80
2019-01-29T00:34:29.547Z,38.70
2019-01-29T00:37:27.875Z,35.63
2019-01-29T00:40:22.691Z,39.97
2019-01-29T00:43:16.815Z,42.57
2019-01-29T00:46:11.468Z,38.87
2019-01-29T00:49:06.032Z,40.23
2019-01-29T00:52:00.448Z,36.37
2019-01-29T00:54:54.906Z,47.53
2019-01-29T00:57:49.254Z,46.53
2019-01-29T01:00:43.702Z,46.23
2019-01-29T01:03:38.146Z,42.67
2019-01-29T01:06:32.705Z,45.50
2019-01-29T01:09:27.109Z,48.30
2019-01-29T01:12:21.859Z,49.70
2019-01-29T01:15:16.787Z,51.53
2019-01-29T01:18:11.148Z,52.27
2019-01-29T01:21:05.723Z,52.87
2019-01-29T01:24:01.058Z,53.37
2019-01-29T01:26:56.077Z,55.83
2019-01-29T01:29:51.051Z,57.20
2019-01-29T01:32:45.312Z,50.50
2019-01-29T01:35:40.480Z,59.63
2019-01-29T01:38:35.313Z,55.10
2019-01-29T01:41:31.367Z,66.47
2019-01-29T01:44:25.883Z,63.70
2019-01-29T01:47:20.524Z,65.70
2019-01-29T01:50:16.020Z,59.93
2019-01-29T01:53:10.473Z,59.93
2019-01-29T01:56:05.019Z,60.13
2019-01-29T01:59:01.045Z,66.73
2019-01-29T02:01:58.765Z,54.50
2019-01-29T02:04:53.411Z,61.23
2019-01-29T02:07:47.917Z,59.90
2019-01-29T02:10:42.409Z,53.57
2019-01-29T02:13:36.656Z,61.77
2019-01-29T02:16:30.715Z,64.07
2019-01-29T02:19:25.383Z,61.93
2019-01-29T02:22:20.925Z,70.83
2019-01-29T02:25:15.467Z,72.37
2019-01-29T02:28:09.824Z,73.13
2019-01-29T02:31:05.126Z,75.50
2019-01-29T02:34:01.862Z,76.10
2019-01-29T02:36:56.335Z,71.40
2019-01-29T02:39:50.790Z,72.40
2019-01-29T02:42:48.327Z,69.47
2019-01-29T02:45:42.570Z,72.30
2019-01-29T02:48:36.986Z,71.90
2019-01-29T02:51:31.447Z,68.97
2019-01-29T02:54:26.177Z,65.63
2019-01-29T02:57:20.704Z,60.27
2019-01-29T03:00:21.272Z,59.07
2019-01-29T03:03:15.808Z,59.93
2019-01-29T03:06:10.379Z,54.43
2019-01-29T03:09:06.269Z,59.90
2019-01-29T03:12:00.251Z,63.23
2019-01-29T03:14:54.881Z,59.27
2019-01-29T03:17:49.266Z,57.47
2019-01-29T03:20:43.681Z,57.17
2019-01-29T03:23:38.167Z,59.60
2019-01-29T03:26:32.856Z,51.83
2019-01-29T03:29:27.770Z,55.83
2019-01-29T03:32:22.481Z,55.37
2019-01-29T03:35:17.115Z,49.87
2019-01-29T03:38:12.418Z,41.87
2019-01-29T03:41:06.777Z,45.60
2019-01-29T03:44:02.666Z,43.13
2019-01-29T03:46:57.634Z,46.83
2019-01-29T03:49:54.080Z,45.10
2019-01-29T03:52:49.476Z,43.90
2019-01-29T03:55:43.989Z,46.63
2019-01-29T03:58:40.712Z,38.63
2019-01-29T04:01:35.214Z,38.00
2019-01-29T04:04:30.083Z,34.17
2019-01-29T04:07:25.301Z,40.70
2019-01-29T04:10:21.427Z,38.63
2019-01-29T04:13:18.152Z,37.80
2019-01-29T04:16:12.783Z,39.87
2019-01-29T04:19:09.905Z,40.40
2019-01-29T04:22:04.037Z,38.97
2019-01-29T04:25:01.964Z,38.97
2019-01-29T04:27:56.653Z,37.80
2019-01-29T04:31:09.897Z,49.53
2019-01-29T04:34:06.333Z,43.13
2019-01-29T04:37:02.518Z,42.93
2019-01-29T04:39:57.322Z,42.43
2019-01-29T04:42:51.917Z,43.07
2019-01-29T04:45:47.012Z,42.80
2019-01-29T04:48:38.120Z,44.30
2019-01-29T04:51:33.210Z,44.00
2019-01-29T04:54:28.223Z,42.60
2019-01-29T04:57:23.002Z,40.70
2019-01-29T05:00:28.868Z,40.57
2019-01-29T05:03:23.634Z,37.67
2019-01-29T05:06:18.917Z,33.70
2019-01-29T05:09:15.501Z,36.87
2019-01-29T05:12:24.722Z,36.07
2019-01-29T05:15:43.150Z,31.90
2019-01-29T05:18:40.364Z,37.17
2019-01-29T05:21:34.999Z,32.90
2019-01-29T05:24:30.007Z,35.70
2019-01-29T05:27:25.464Z,30.90
2019-01-29T05:30:25.204Z,30.97
2019-01-29T05:33:20.645Z,28.70
2019-01-29T05:36:14.971Z,27.03
2019-01-29T05:39:20.477Z,28.40
2019-01-29T05:42:16.692Z,29.03
2019-01-29T05:45:12.325Z,25.70
2019-01-29T05:48:51.398Z,26.67
2019-01-29T05:51:54.837Z,25.63
2019-01-29T05:54:50.266Z,26.47
2019-01-29T05:57:46.155Z,27.27
2019-01-29T06:00:42.925Z,26.90
2019-01-29T06:03:40.143Z,25.10
2019-01-29T06:06:38.415Z,28.10
2019-01-29T06:09:33.638Z,26.23
2019-01-29T06:12:29.391Z,24.73
2019-01-29T06:15:24.296Z,26.00
2019-01-29T06:18:21.396Z,25.27
2019-01-29T06:21:20.227Z,25.30
2019-01-29T06:24:25.283Z,25.30
2019-01-29T06:27:12.540Z,25.70
2019-01-29T06:30:08.040Z,26.13
2019-01-29T06:33:03.054Z,26.27
2019-01-29T06:39:22.887Z,23.27
2019-01-29T06:42:20.845Z,23.63
2019-01-29T06:46:08.960Z,24.83
2019-01-29T06:49:03.814Z,25.07
2019-01-29T06:52:46.358Z,24.53
2019-01-29T06:56:03.877Z,22.97
2019-01-29T06:59:37.903Z,24.87
2019-01-29T07:02:11.832Z,22.80
2019-01-29T07:05:13.433Z,24.47
2019-01-29T07:08:09.560Z,24.13
2019-01-29T07:11:05.858Z,22.73
2019-01-29T07:14:01.781Z,22.90
2019-01-29T07:17:03.212Z,21.23
2019-01-29T07:23:15.277Z,21.30
2019-01-29T07:26:14.306Z,21.47
2019-01-29T07:29:13.589Z,19.83
2019-01-29T07:32:09.692Z,20.43
2019-01-29T07:35:04.628Z,17.87
2019-01-29T07:37:58.904Z,19.90
2019-01-29T07:40:55.972Z,19.37
2019-01-29T07:43:50.938Z,19.37
2019-01-29T07:46:45.407Z,19.03
2019-01-29T07:49:40.023Z,19.77
2019-01-29T07:52:36.028Z,19.50
2019-01-29T07:55:31.875Z,19.03
2019-01-29T07:58:27.598Z,18.40
2019-01-29T08:01:22.302Z,18.40
2019-01-29T08:04:17.368Z,17.07
2019-01-29T08:07:12.560Z,18.27
2019-01-29T08:10:08.194Z,18.87
2019-01-29T08:15:54.684Z,19.20
2019-01-29T08:19:08.229Z,18.07
2019-01-29T08:26:06.696Z,17.37
2019-01-29T08:29:27.838Z,19.33
2019-01-29T08:32:13.341Z,17.33
2019-01-29T08:35:11.332Z,17.80
2019-01-29T08:38:44.983Z,17.47
2019-01-29T08:41:36.516Z,16.97
2019-01-29T08:44:30.214Z,17.17
2019-01-29T08:47:24.784Z,17.30
2019-01-29T08:50:22.271Z,17.77
2019-01-29T08:53:22.350Z,16.37
2019-01-29T08:56:16.587Z,17.13
2019-01-29T08:59:11.743Z,17.37
2019-01-29T09:02:08.162Z,15.10
2019-01-29T09:05:04.219Z,15.13
2019-01-29T09:08:00.099Z,15.37
2019-01-29T09:10:54.915Z,15.80
2019-01-29T09:13:49.506Z,15.37
2019-01-29T09:16:43.281Z,15.67
2019-01-29T09:19:37.683Z,14.13
2019-01-29T09:22:31.940Z,15.10
2019-01-29T09:25:27.138Z,13.10
2019-01-29T09:28:27.799Z,12.57
2019-01-29T09:31:23.042Z,14.20
2019-01-29T09:34:18.434Z,14.07
2019-01-29T09:40:06.500Z,14.10
2019-01-29T09:43:02.919Z,12.70
2019-01-29T09:45:57.573Z,13.00
2019-01-29T09:48:52.536Z,13.17
2019-01-29T09:51:48.637Z,13.03
2019-01-29T09:54:43.651Z,13.17
2019-01-29T09:57:39.861Z,13.33
2019-01-29T10:00:39.786Z,13.00
2019-01-29T10:03:35.945Z,12.67
2019-01-29T10:06:33.848Z,13.57
2019-01-29T10:09:28.860Z,12.90
2019-01-29T10:12:24.616Z,11.93
2019-01-29T10:15:23.587Z,12.50
2019-01-29T10:21:11.646Z,12.93
2019-01-29T10:24:04.694Z,11.90
2019-01-29T10:27:02.090Z,12.23
2019-01-29T10:30:21.357Z,11.70
2019-01-29T10:33:16.973Z,11.20
2019-01-29T10:36:11.963Z,12.83
2019-01-29T10:42:09.849Z,12.00
2019-01-29T10:45:06.999Z,12.20
2019-01-29T11:13:35.660Z,11.13
2019-01-29T11:51:20.992Z,11.93
2019-01-29T11:54:50.452Z,11.63
2019-01-29T11:58:10.203Z,11.77
2019-01-29T12:01:23.386Z,13.63
2019-01-29T12:05:00.030Z,13.50
2019-01-29T12:08:00.134Z,13.97
2019-01-29T12:11:39.477Z,13.10
2019-01-29T12:18:37.662Z,15.30
2019-01-29T12:21:33.007Z,15.77
2019-01-29T12:24:46.678Z,15.67
2019-01-29T12:27:41.896Z,15.93
2019-01-29T12:30:39.666Z,15.27
2019-01-29T12:33:34.614Z,14.70
2019-01-29T12:36:35.078Z,15.40
2019-01-29T12:39:34.349Z,13.63
2019-01-29T12:42:29.747Z,14.03
2019-01-29T12:45:30.798Z,16.27
2019-01-29T12:49:29.535Z,18.90
2019-01-29T12:56:28.915Z,42.47
2019-01-29T12:59:29.494Z,36.10
2019-01-29T13:02:23.685Z,30.23
2019-01-29T13:05:18.798Z,27.70
2019-01-29T13:08:17.212Z,24.47
2019-01-29T13:11:16.514Z,24.67
2019-01-29T13:14:11.262Z,26.93
2019-01-29T13:16:59.793Z,24.73
2019-01-29T13:19:57.842Z,26.37
2019-01-29T13:22:53.170Z,26.50
2019-01-29T13:25:47.493Z,25.43
2019-01-29T13:28:46.260Z,28.37
2019-01-29T13:31:43.379Z,33.77
2019-01-29T13:34:41.877Z,45.13
2019-01-29T13:37:37.468Z,53.03
2019-01-29T13:40:32.033Z,51.30
2019-01-29T13:43:26.319Z,55.60
2019-01-29T13:46:43.103Z,36.57
2019-01-29T13:50:04.553Z,46.23
2019-01-29T13:53:31.153Z,37.93
2019-01-29T13:56:38.303Z,43.80
2019-01-29T13:59:25.527Z,46.80
2019-01-29T14:02:20.284Z,51.43
2019-01-29T14:05:11.858Z,52.93
2019-01-29T14:08:10.360Z,63.53
2019-01-29T14:11:08.266Z,59.83
2019-01-29T14:14:02.943Z,55.37
2019-01-29T14:16:57.182Z,54.60
2019-01-29T14:19:52.307Z,56.77
2019-01-29T14:22:49.473Z,56.93
2019-01-29T14:25:44.124Z,57.37
2019-01-29T14:28:38.829Z,56.57
2019-01-29T14:31:34.782Z,56.63
2019-01-29T14:34:29.207Z,54.17
2019-01-29T14:37:23.816Z,55.60
2019-01-29T14:40:23.660Z,58.67
2019-01-29T14:43:19.749Z,63.83
2019-01-29T14:46:15.574Z,58.53
2019-01-29T14:49:12.655Z,45.27
2019-01-29T14:52:07.406Z,78.27
2019-01-29T14:55:02.964Z,69.67
2019-01-29T14:57:58.037Z,63.63
2019-01-29T15:00:53.130Z,69.70
2019-01-29T15:03:48.827Z,63.67
2019-01-29T15:06:44.849Z,67.67
2019-01-29T15:09:40.273Z,74.70
2019-01-29T15:12:35.801Z,68.07
2019-01-29T15:15:31.539Z,60.77
2019-01-29T15:18:30.078Z,60.33
2019-01-29T15:21:27.727Z,65.20
2019-01-29T15:24:23.074Z,66.40
2019-01-29T15:27:17.517Z,62.63
2019-01-29T15:30:19.518Z,57.37
2019-01-29T15:33:14.051Z,56.67
2019-01-29T15:36:10.165Z,54.83
2019-01-29T15:39:05.485Z,53.83
2019-01-29T15:42:05.997Z,56.13
2019-01-29T15:44:59.560Z,63.97
2019-01-29T15:50:45.051Z,69.90
2019-01-29T15:53:39.752Z,68.10
2019-01-29T15:56:33.969Z,68.20
2019-01-29T15:59:28.805Z,74.17
2019-01-29T16:02:23.727Z,77.90
2019-01-29T16:05:20.854Z,74.47
2019-01-29T16:08:16.103Z,72.57
2019-01-29T16:11:11.176Z,69.53
2019-01-29T16:14:07.250Z,56.17
2019-01-29T16:17:01.904Z,55.27
2019-01-29T16:19:56.825Z,56.87
2019-01-29T16:22:51.311Z,85.90
2019-01-29T16:25:45.887Z,96.37
2019-01-29T16:28:40.828Z,78.80
2019-01-29T16:31:35.233Z,91.80
2019-01-29T16:34:30.254Z,93.43
2019-01-29T16:37:24.759Z,103.20
2019-01-29T16:40:20.529Z,115.60
2019-01-29T16:43:16.129Z,98.73
2019-01-29T16:46:11.047Z,107.93
2019-01-29T16:49:05.416Z,107.90
2019-01-29T16:52:03.181Z,95.07
2019-01-29T16:54:58.070Z,95.57
2019-01-29T16:57:53.929Z,100.70
2019-01-29T17:00:48.722Z,102.97
2019-01-29T17:03:44.087Z,90.40
2019-01-29T17:06:39.375Z,90.83
2019-01-29T17:09:34.197Z,105.10
2019-01-29T17:12:28.582Z,123.43
2019-01-29T17:15:26.443Z,109.63
2019-01-29T17:18:20.685Z,124.33
2019-01-29T17:21:15.588Z,127.40
2019-01-29T17:24:10.198Z,128.60
2019-01-29T17:27:04.505Z,127.90
2019-01-29T17:29:58.864Z,123.30
2019-01-29T17:32:53.753Z,116.60
2019-01-29T17:35:48.165Z,110.80
2019-01-29T17:38:44.731Z,124.73
2019-01-29T17:41:38.310Z,111.20
2019-01-29T17:44:32.742Z,114.50
2019-01-29T17:47:26.960Z,111.47
2019-01-29T17:50:24.528Z,83.13
2019-01-29T17:53:19.647Z,108.80
2019-01-29T17:56:14.204Z,97.33
2019-01-29T17:59:12.223Z,102.43
2019-01-29T18:02:09.562Z,99.47
2019-01-29T18:05:03.958Z,99.97
2019-01-29T18:07:58.411Z,108.57
2019-01-29T18:10:52.842Z,93.30
2019-01-29T18:13:46.970Z,90.53
2019-01-29T18:16:41.979Z,95.47
2019-01-29T18:19:36.494Z,77.60
2019-01-29T18:22:31.540Z,77.73
2019-01-29T18:25:26.046Z,72.37
2019-01-29T18:28:20.681Z,66.83
2019-01-29T18:31:16.336Z,59.03
2019-01-29T18:34:10.620Z,59.43
2019-01-29T18:37:04.734Z,56.27
2019-01-29T18:39:59.201Z,56.47
2019-01-29T18:42:53.605Z,56.60
2019-01-29T18:45:48.028Z,53.97
2019-01-29T18:48:42.235Z,66.10
2019-01-29T18:51:36.993Z,57.97
2019-01-29T18:54:31.349Z,62.90
2019-01-29T18:57:26.081Z,67.87
2019-01-29T19:00:23.013Z,65.20
2019-01-29T19:03:19.814Z,65.63
2019-01-29T19:06:14.002Z,65.60
2019-01-29T19:09:10.586Z,64.43
2019-01-29T19:12:05.037Z,72.03
2019-01-29T19:14:59.537Z,74.47
2019-01-29T19:17:54.391Z,69.70
2019-01-29T19:20:49.845Z,65.33
2019-01-29T19:23:44.340Z,67.13
2019-01-29T19:26:38.564Z,68.23
2019-01-29T19:29:32.923Z,71.13
2019-01-29T19:32:27.047Z,64.60
2019-01-29T19:35:21.767Z,66.63
2019-01-29T19:38:16.640Z,65.33
2019-01-29T19:41:11.191Z,68.97
2019-01-29T19:44:05.746Z,71.90
2019-01-29T19:46:59.912Z,64.47
2019-01-29T19:49:54.505Z,69.23
2019-01-29T19:52:49.114Z,66.33
2019-01-29T19:55:43.791Z,73.50
2019-01-29T19:58:38.138Z,79.20
2019-01-29T20:01:32.295Z,78.00
2019-01-29T20:04:26.512Z,76.87
2019-01-29T20:07:20.690Z,76.53
2019-01-29T20:10:16.407Z,84.10
2019-01-29T20:13:10.726Z,77.80
2019-01-29T20:16:04.685Z,81.63
2019-01-29T20:18:59.015Z,81.47
2019-01-29T20:21:53.343Z,77.20
2019-01-29T20:24:49.622Z,73.17
2019-01-29T20:27:43.937Z,70.67
2019-01-29T20:30:39.863Z,71.47
2019-01-29T20:33:34.334Z,70.87
2019-01-29T20:36:28.705Z,72.10
2019-01-29T20:39:22.798Z,68.17
2019-01-29T20:42:17.483Z,71.30
2019-01-29T20:45:12.980Z,71.40
2019-01-29T20:48:07.425Z,66.00
2019-01-29T20:51:01.927Z,63.70
2019-01-29T20:53:56.295Z,67.10
2019-01-29T20:56:50.792Z,66.83
2019-01-29T20:59:45.002Z,60.63
2019-01-29T21:02:39.173Z,62.90
2019-01-29T21:05:33.360Z,65.00
2019-01-29T21:08:27.496Z,62.23
2019-01-29T21:11:21.681Z,68.17
2019-01-29T21:14:16.181Z,65.47
2019-01-29T21:17:10.741Z,65.83
2019-01-29T21:20:05.203Z,66.33
2019-01-29T21:22:59.594Z,66.63
2019-01-29T21:25:53.757Z,65.60
2019-01-29T21:28:47.910Z,69.03
2019-01-29T21:31:42.120Z,65.10
2019-01-29T21:34:36.668Z,62.13
2019-01-29T21:37:30.996Z,65.30
2019-01-29T21:40:25.525Z,63.97
2019-01-29T21:43:19.900Z,63.27
2019-01-29T21:46:15.045Z,61.93
2019-01-29T21:49:09.360Z,61.47
2019-01-29T21:52:03.718Z,62.47
2019-01-29T21:54:57.977Z,61.47
2019-01-29T21:57:52.314Z,62.00
2019-01-29T22:00:50.665Z,60.93
2019-01-29T22:03:45.124Z,59.83
2019-01-29T22:06:39.630Z,62.53
2019-01-29T22:09:33.981Z,59.63
2019-01-29T22:12:28.366Z,62.17
2019-01-29T22:15:23.085Z,62.10
2019-01-29T22:18:18.306Z,67.63
2019-01-29T22:21:12.844Z,63.10
2019-01-29T22:24:07.363Z,64.63
2019-01-29T22:27:01.532Z,62.20
2019-01-29T22:29:56.028Z,58.37
2019-01-29T22:32:50.610Z,62.87
2019-01-29T22:35:44.968Z,67.10
2019-01-29T22:38:39.395Z,66.07
2019-01-29T22:41:34.046Z,65.07
2019-01-29T22:44:28.599Z,64.10
2019-01-29T22:47:28.037Z,65.60
2019-01-29T22:50:25.152Z,64.57
2019-01-29T22:53:19.445Z,68.43
2019-01-29T22:56:13.911Z,64.47
2019-01-29T22:59:08.262Z,63.60
2019-01-29T23:02:02.770Z,62.73
2019-01-29T23:04:57.387Z,59.73
2019-01-29T23:07:51.795Z,62.13
2019-01-29T23:10:45.983Z,59.03
2019-01-29T23:13:40.403Z,60.13
2019-01-29T23:16:34.955Z,58.87
2019-01-29T23:19:29.322Z,60.43
2019-01-29T23:22:23.600Z,63.03
2019-01-29T23:25:18.367Z,69.03
2019-01-29T23:28:12.623Z,68.20
2019-01-29T23:31:07.272Z,67.30
2019-01-29T23:34:02.237Z,66.80
2019-01-29T23:36:56.629Z,70.70
2019-01-29T23:39:51.290Z,70.63
2019-01-29T23:42:46.002Z,69.83
2019-01-29T23:45:40.374Z,70.83
2019-01-29T23:48:34.758Z,72.67
2019-01-29T23:51:29.156Z,70.63
2019-01-29T23:54:23.474Z,69.60
2019-01-29T23:57:17.757Z,75.30
